Share

Ansonia, PA

RAWS OLD MOUNTAIN PA US (MOLDP1) Elev 1923 ft | 41.56 °N, 77.41 °W | Change Station

Current weather conditions updated 34 minutes ago

Clear
Clear
26 °F
Feels Like 26 °F
N
0
Wind Variable Wind from North
Gusts 2.0 mph
Sunrise 6:21 AM
Sunset 7:56 PM
Moon Waning Gibbous

Today is forecast to be Warmer than yesterday.

Pressure 30.42 in
Visibility 10.0 miles
Clouds Clear
Windchill 26 °F
Dew Point 26 °F
Humidity 100%
Rainfall 0.00 in
Snow Depth Not available.
UV 0 out of 16
Pollen 10.70 out of 12
Air Quality Not available.
Flu Activity Local Activity
METAR KELZ 200956Z AUTO 16004KT 10SM CLR 01/M05 A3037 RMK AO2 SLP299 T00061050

More Conditions Fewer Conditions

Pressure 30.42 in
Visibility 10.0 miles
Clouds Clear
Windchill 26 °F
Dew Point 26 °F
Humidity 100%
Rainfall 0.00 in
Snow Depth Not available.
UV 0 out of 16
Pollen 10.70 out of 12
Air Quality Not available.
Flu Activity Local Activity
METAR KELZ 200956Z AUTO 16004KT 10SM CLR 01/M05 A3037 RMK AO2 SLP299 T00061050

More Conditions Fewer Conditions

10-Day Weather Forecast

Almanac

Astronomy

Apr. 20, 2014 Rise Set
Actual Time 6:21 AM EDT 7:56 PM EDT
Civil Twilight 5:52 AM EDT 8:25 PM EDT
Nautical Twilight 5:17 AM EDT 9:00 PM EDT
Astronomical Twilight 4:39 AM EDT 9:38 PM EDT
Moon 12:35 AM EDT 10:38 AM EDT
Length of Visible Light 14h 32m
Length of Day
13h 34m
Tomorrow will be 2m 37s longer.
Waning Gibbous, 71% of the Moon is Illuminated
Today
Waning Gibbous
Apr 22
Last Quarter
Apr 29
New
May 6
First Quarter
May 14
Full

Today's Extremes

State Highs State Lows

Community

  • Easter Greetings
    Easter Greetings
  • Sunny day at the coast-Cape Arago Lighthouse
    Sunny day at the coast-Cape Arago Lighthouse
  • Cherry Blossoms
    Cherry Blossoms
  • White-Crowned Sparrow
    White-Crowned Sparrow
  • New Day
    New Day

WunderPhotos

Upload Photos

1,703,135 photos uploaded!

WunderBlogs® & News

Nearby

Snow Depth

Station Depth Elevation
No new snow has been reported.

Coastal Water Temperatures

Place Temperature
No Stations Reporting

Earthquake Activity

City Distance Mag. Time & Date
No recent earthquake activity has been reported nearby.
Minimum magnitude displayed is 2.5.

Nearby Weather Stations

Station Location Temp. Windchill Dew Point Humidity Wind Precip. Elev Updated Type
RAWS OLD MOUNTAIN PA, Morris, PA 26 °F 26 °F 26 °F 100% North  at  0 mph 0.00 in / hr 1923 ft 6:16 AM EDT MADIS
MansfieldWeather.net, Mansfield, PA 23.8 °F 24 °F 22 °F 94% WSW  at  0.0 mph 0.00 in / hr 1240 ft 6:50 AM EDT Rapid Fire
Never U Mine Farm, Addison, NY 29.8 °F 30 °F 28 °F 94% NW  at  2.2 mph 0.00 in / hr 1713 ft 6:50 AM EDT Normal
Germania, Galeton, PA 30.2 °F 30 °F 25 °F 81% ENE  at  0.0 mph 0.00 in / hr 2240 ft 6:49 AM EDT Normal

Show More Stations Show Fewer Stations

What do you think?

We're not finished. Please let us know what you like, what you don't like, and what you are still missing.